createdAt,value
2023-01-12T00:01:52.496Z,2.10
2023-01-12T00:04:19.552Z,2.13
2023-01-12T00:06:46.404Z,2.14
2023-01-12T00:09:13.231Z,2.15
2023-01-12T00:11:40.587Z,2.20
2023-01-12T00:14:08.971Z,2.20
2023-01-12T00:16:38.986Z,2.17
2023-01-12T00:19:08.800Z,2.17
2023-01-12T00:21:39.749Z,2.13
2023-01-12T00:24:08.667Z,2.17
2023-01-12T00:26:35.396Z,2.21
2023-01-12T00:29:02.213Z,2.25
2023-01-12T00:31:28.869Z,2.26
2023-01-12T00:33:55.808Z,2.24
2023-01-12T00:36:22.770Z,2.26
2023-01-12T00:38:49.456Z,2.26
2023-01-12T00:41:36.202Z,2.30
2023-01-12T00:44:22.584Z,2.35
2023-01-12T00:46:49.716Z,2.38
2023-01-12T00:49:16.651Z,2.44
2023-01-12T00:51:44.479Z,2.46
2023-01-12T00:54:12.879Z,2.48
2023-01-12T00:56:39.655Z,2.50
2023-01-12T00:59:07.303Z,2.50
2023-01-12T01:04:28.518Z,2.34
2023-01-12T01:06:57.379Z,2.54
2023-01-12T01:09:26.482Z,2.37
2023-01-12T01:11:53.543Z,2.56
2023-01-12T01:14:20.608Z,2.36
2023-01-12T01:17:08.584Z,2.29
2023-01-12T01:19:38.790Z,2.39
2023-01-12T01:22:12.309Z,2.41
2023-01-12T01:24:53.594Z,2.41
2023-01-12T01:27:23.066Z,2.57
2023-01-12T01:29:53.057Z,2.40
2023-01-12T01:32:19.998Z,2.62
2023-01-12T01:34:47.658Z,2.56
2023-01-12T01:37:21.484Z,2.59
2023-01-12T01:40:02.237Z,2.71
2023-01-12T01:42:36.542Z,2.63
2023-01-12T01:45:16.934Z,2.77
2023-01-12T01:47:51.152Z,2.77
2023-01-12T01:50:33.399Z,2.81
2023-01-12T01:53:08.277Z,2.81
2023-01-12T01:55:49.764Z,2.65
2023-01-12T01:58:25.989Z,2.84
2023-01-12T02:00:57.577Z,2.57
2023-01-12T02:03:26.275Z,2.71
2023-01-12T02:05:55.200Z,2.90
2023-01-12T02:08:54.940Z,2.82
2023-01-12T02:11:40.966Z,2.92
2023-01-12T02:14:28.675Z,2.88
2023-01-12T02:17:18.296Z,2.98
2023-01-12T02:20:22.545Z,3.01
2023-01-12T02:23:30.676Z,2.99
2023-01-12T02:26:12.813Z,2.98
2023-01-12T02:29:21.565Z,2.96
2023-01-12T02:32:02.433Z,2.93
2023-01-12T02:34:54.965Z,3.02
2023-01-12T02:37:43.568Z,3.05
2023-01-12T02:40:37.576Z,3.08
2023-01-12T02:43:13.570Z,2.98
2023-01-12T02:46:21.953Z,2.95
2023-01-12T02:49:02.044Z,3.05
2023-01-12T02:51:34.937Z,2.88
2023-01-12T02:54:06.329Z,3.05
2023-01-12T02:56:42.051Z,2.91
2023-01-12T02:59:16.229Z,3.05
2023-01-12T03:01:45.043Z,3.04
2023-01-12T03:04:14.070Z,2.87
2023-01-12T03:07:05.857Z,2.99
2023-01-12T03:09:48.262Z,2.95
2023-01-12T03:12:21.341Z,2.88
2023-01-12T03:14:51.392Z,2.91
2023-01-12T03:17:27.062Z,3.08
2023-01-12T03:19:59.923Z,3.09
2023-01-12T03:22:26.867Z,3.04
2023-01-12T03:24:59.471Z,3.11
2023-01-12T03:27:36.634Z,3.09
2023-01-12T03:30:08.369Z,3.01
2023-01-12T03:32:35.726Z,2.83
2023-01-12T03:35:05.609Z,3.01
2023-01-12T03:37:40.553Z,3.13
2023-01-12T03:40:17.183Z,3.10
2023-01-12T03:42:55.654Z,3.13
2023-01-12T03:45:37.287Z,3.09
2023-01-12T03:48:16.632Z,2.97
2023-01-12T03:50:50.080Z,3.05
2023-01-12T03:53:21.441Z,2.96
2023-01-12T03:55:53.124Z,3.06
2023-01-12T03:58:20.762Z,3.06
2023-01-12T04:00:47.660Z,3.03
2023-01-12T04:03:16.568Z,2.88
2023-01-12T04:05:44.750Z,3.00
2023-01-12T04:08:13.997Z,3.09
2023-01-12T04:10:40.804Z,3.07
2023-01-12T04:13:07.946Z,3.10
2023-01-12T04:15:42.282Z,3.09
2023-01-12T04:18:10.441Z,2.99
2023-01-12T04:20:37.819Z,2.88
2023-01-12T04:23:05.723Z,2.89
2023-01-12T04:25:32.862Z,2.90
2023-01-12T04:28:01.497Z,2.89
2023-01-12T04:30:29.877Z,2.95
2023-01-12T04:32:57.547Z,3.04
2023-01-12T04:35:24.769Z,3.13
2023-01-12T04:37:52.621Z,3.18
2023-01-12T04:40:20.041Z,3.06
2023-01-12T04:43:01.283Z,3.20
2023-01-12T04:45:33.644Z,3.01
2023-01-12T04:48:06.741Z,3.11
2023-01-12T04:50:35.486Z,2.94
2023-01-12T04:53:04.096Z,3.09
2023-01-12T04:55:31.884Z,3.21
2023-01-12T04:57:58.883Z,3.19
2023-01-12T05:00:25.634Z,3.23
2023-01-12T05:02:59.392Z,3.26
2023-01-12T05:05:27.259Z,3.27
2023-01-12T05:08:12.671Z,3.19
2023-01-12T05:10:42.323Z,3.29
2023-01-12T05:13:09.042Z,3.25
2023-01-12T05:15:35.799Z,3.26
2023-01-12T05:18:02.466Z,3.27
2023-01-12T05:20:29.164Z,3.28
2023-01-12T05:22:57.162Z,3.15
2023-01-12T05:25:24.115Z,3.28
2023-01-12T05:27:54.707Z,3.13
2023-01-12T05:30:25.553Z,3.29
2023-01-12T05:32:52.607Z,3.23
2023-01-12T05:35:19.314Z,3.30
2023-01-12T05:37:46.099Z,3.31
2023-01-12T05:40:16.354Z,3.22
2023-01-12T05:43:01.708Z,3.12
2023-01-12T05:45:28.481Z,3.29
2023-01-12T05:47:59.905Z,3.24
2023-01-12T05:50:26.868Z,3.23
2023-01-12T05:52:53.714Z,3.29
2023-01-12T05:55:20.748Z,3.29
2023-01-12T05:57:48.064Z,3.26
2023-01-12T06:00:15.163Z,3.28
2023-01-12T06:02:41.824Z,3.17
2023-01-12T06:05:10.037Z,3.18
2023-01-12T06:07:44.368Z,3.23
2023-01-12T06:10:14.559Z,3.11
2023-01-12T06:12:59.869Z,3.09
2023-01-12T06:15:26.936Z,3.09
2023-01-12T06:17:53.619Z,3.29
2023-01-12T06:20:20.335Z,3.17
2023-01-12T06:22:47.054Z,3.06
2023-01-12T06:25:13.825Z,3.21
2023-01-12T06:27:40.485Z,3.31
2023-01-12T06:30:09.138Z,3.37
2023-01-12T06:32:36.553Z,3.18
2023-01-12T06:35:10.764Z,3.28
2023-01-12T06:37:49.821Z,3.35
2023-01-12T06:40:16.691Z,3.39
2023-01-12T06:42:43.406Z,3.31
2023-01-12T06:45:10.816Z,3.45
2023-01-12T06:48:00.122Z,3.44
2023-01-12T06:50:26.877Z,3.55
2023-01-12T06:52:53.661Z,3.50
2023-01-12T06:55:20.472Z,3.57
2023-01-12T06:57:47.222Z,3.48
2023-01-12T07:00:14.562Z,3.52
2023-01-12T07:02:42.243Z,3.54
2023-01-12T07:05:09.769Z,3.51
2023-01-12T07:07:39.964Z,3.47
2023-01-12T07:10:07.485Z,3.68
2023-01-12T07:12:34.302Z,3.61
2023-01-12T07:15:01.051Z,3.77
2023-01-12T07:17:27.860Z,3.74
2023-01-12T07:19:54.922Z,3.83
2023-01-12T07:22:21.841Z,3.72
2023-01-12T07:24:48.855Z,3.77
2023-01-12T07:27:16.171Z,3.91
2023-01-12T07:29:42.899Z,3.98
2023-01-12T07:32:09.880Z,4.02
2023-01-12T07:34:36.845Z,3.97
2023-01-12T07:37:03.686Z,4.02
2023-01-12T07:39:30.422Z,4.06
2023-01-12T07:42:15.839Z,4.18
2023-01-12T07:44:42.550Z,4.23
2023-01-12T07:47:09.277Z,4.16
2023-01-12T07:49:36.128Z,4.19
2023-01-12T07:52:02.856Z,4.30
2023-01-12T07:54:29.838Z,4.33
2023-01-12T07:56:56.659Z,4.20
2023-01-12T07:59:23.405Z,4.32
2023-01-12T08:01:53.065Z,4.20
2023-01-12T08:04:21.951Z,4.25
2023-01-12T08:06:49.018Z,4.36
2023-01-12T08:09:16.031Z,4.30
2023-01-12T08:11:42.755Z,4.39
2023-01-12T08:14:13.123Z,4.40
2023-01-12T08:16:43.534Z,4.24
2023-01-12T08:19:16.498Z,4.40
2023-01-12T08:21:52.872Z,4.34
2023-01-12T08:24:32.558Z,4.43
2023-01-12T08:27:01.732Z,4.49
2023-01-12T08:29:40.242Z,4.50
2023-01-12T08:34:38.320Z,4.53
2023-01-12T08:37:08.600Z,4.51
2023-01-12T08:39:36.672Z,4.46
2023-01-12T08:42:03.902Z,4.55
2023-01-12T08:44:41.068Z,4.42
2023-01-12T08:47:17.181Z,4.73
2023-01-12T08:49:45.278Z,4.66
2023-01-12T08:52:13.353Z,4.75
2023-01-12T08:54:40.144Z,4.70
2023-01-12T08:57:07.316Z,4.72
2023-01-12T08:59:34.343Z,4.62
2023-01-12T09:02:01.338Z,4.86
2023-01-12T09:04:28.192Z,4.76
2023-01-12T09:06:55.336Z,4.91
2023-01-12T09:09:22.565Z,4.90
2023-01-12T09:11:50.933Z,5.01
2023-01-12T09:14:17.916Z,5.07
2023-01-12T09:16:44.996Z,4.90
2023-01-12T09:19:12.161Z,5.01
2023-01-12T09:21:40.695Z,5.12
2023-01-12T09:24:08.202Z,4.96
2023-01-12T09:26:47.345Z,5.07
2023-01-12T09:29:15.179Z,5.19
2023-01-12T09:31:45.784Z,5.18
2023-01-12T09:34:12.673Z,5.03
2023-01-12T09:36:40.798Z,5.15
2023-01-12T09:39:10.303Z,5.09
2023-01-12T09:42:03.107Z,5.09
2023-01-12T09:44:51.121Z,5.17
2023-01-12T09:47:31.081Z,5.03
2023-01-12T09:50:16.501Z,5.11
2023-01-12T09:53:03.730Z,5.18
2023-01-12T09:56:09.519Z,5.01
2023-01-12T09:59:13.788Z,5.21
2023-01-12T10:01:40.565Z,5.21
2023-01-12T10:04:07.586Z,5.15
2023-01-12T10:06:36.740Z,5.09
2023-01-12T10:09:12.108Z,5.20
2023-01-12T10:11:57.299Z,5.31
2023-01-12T10:14:33.101Z,5.32
2023-01-12T10:17:42.028Z,5.24
2023-01-12T10:20:23.379Z,5.33
2023-01-12T10:22:54.000Z,5.34
2023-01-12T10:25:26.272Z,5.28
2023-01-12T10:27:57.215Z,5.30
2023-01-12T10:30:38.842Z,5.31
2023-01-12T10:33:20.213Z,5.26
2023-01-12T10:36:11.389Z,5.37
2023-01-12T10:38:52.722Z,5.31
2023-01-12T10:41:21.603Z,5.22
2023-01-12T10:44:00.616Z,5.32
2023-01-12T10:46:31.870Z,5.25
2023-01-12T10:49:21.885Z,5.29
2023-01-12T10:52:12.388Z,5.26
2023-01-12T10:54:41.658Z,5.26
2023-01-12T10:57:17.666Z,5.32
2023-01-12T10:59:56.062Z,5.18
2023-01-12T11:02:25.955Z,5.26
2023-01-12T11:04:54.694Z,5.32
2023-01-12T11:07:29.285Z,5.36
2023-01-12T11:09:58.483Z,5.20
2023-01-12T11:12:34.077Z,5.18
2023-01-12T11:15:16.958Z,5.27
2023-01-12T11:17:47.528Z,5.28
2023-01-12T11:20:39.606Z,5.28
2023-01-12T11:23:32.775Z,5.21
2023-01-12T11:26:02.588Z,5.35
2023-01-12T11:28:44.758Z,5.27
2023-01-12T11:31:39.629Z,5.21
2023-01-12T11:34:17.174Z,5.30
2023-01-12T11:36:52.146Z,5.28
2023-01-12T11:39:27.269Z,5.17
2023-01-12T11:42:20.433Z,5.35
2023-01-12T11:45:02.675Z,5.36
2023-01-12T11:47:41.614Z,5.21
2023-01-12T11:50:20.384Z,5.39
2023-01-12T11:52:47.186Z,5.29
2023-01-12T11:55:17.537Z,5.19
2023-01-12T11:58:18.753Z,5.18
2023-01-12T12:01:33.459Z,5.30
2023-01-12T12:04:31.419Z,5.21
2023-01-12T12:07:16.216Z,5.27
2023-01-12T12:10:15.551Z,5.23
2023-01-12T12:13:20.723Z,5.29
2023-01-12T12:16:03.981Z,5.30
2023-01-12T12:18:42.469Z,5.26
2023-01-12T12:21:31.379Z,5.33
2023-01-12T12:24:32.333Z,5.33
2023-01-12T12:27:27.051Z,5.31
2023-01-12T12:30:27.124Z,5.30
2023-01-12T12:33:09.881Z,5.30
2023-01-12T12:36:08.559Z,5.16
2023-01-12T12:38:38.811Z,5.37
2023-01-12T12:41:41.550Z,5.13
2023-01-12T12:44:29.600Z,5.39
2023-01-12T12:47:04.420Z,5.29
2023-01-12T12:49:32.978Z,5.44
2023-01-12T12:52:00.885Z,5.31
2023-01-12T12:54:29.429Z,5.38
2023-01-12T12:56:57.134Z,5.32
2023-01-12T12:59:33.747Z,5.51
2023-01-12T13:02:04.627Z,5.53
2023-01-12T13:04:43.835Z,5.60
2023-01-12T13:07:21.094Z,5.63
2023-01-12T13:09:49.435Z,5.53
2023-01-12T13:12:29.902Z,5.52
2023-01-12T13:15:26.542Z,5.61
2023-01-12T13:17:55.770Z,5.53
2023-01-12T13:20:35.732Z,5.65
2023-01-12T13:23:02.915Z,5.53
2023-01-12T13:25:35.816Z,5.66
2023-01-12T13:28:02.594Z,5.72
2023-01-12T13:30:29.516Z,5.74
2023-01-12T13:33:24.633Z,5.70
2023-01-12T13:35:51.678Z,5.73
2023-01-12T13:38:33.833Z,5.81
2023-01-12T13:41:13.968Z,5.80
2023-01-12T13:43:45.593Z,5.81
2023-01-12T13:46:17.527Z,5.91
2023-01-12T13:48:49.038Z,5.87
2023-01-12T13:51:21.623Z,5.92
2023-01-12T13:54:04.337Z,5.92
2023-01-12T13:56:32.447Z,5.80
2023-01-12T13:59:01.879Z,5.94
2023-01-12T14:01:33.105Z,5.90
2023-01-12T14:04:29.691Z,5.94
2023-01-12T14:07:22.962Z,5.96
2023-01-12T14:10:37.792Z,5.95
2023-01-12T14:13:18.695Z,5.99
2023-01-12T14:16:04.535Z,6.00
2023-01-12T14:18:46.426Z,5.96
2023-01-12T14:21:38.135Z,5.92
2023-01-12T14:24:20.966Z,6.06
2023-01-12T14:26:47.970Z,5.92
2023-01-12T14:29:14.754Z,5.96
2023-01-12T14:31:52.079Z,6.05
2023-01-12T14:34:35.651Z,6.04
2023-01-12T14:37:05.913Z,5.87
2023-01-12T14:39:41.337Z,6.04
2023-01-12T14:42:37.502Z,5.96
2023-01-12T14:45:39.842Z,5.99
2023-01-12T14:48:19.675Z,6.03
2023-01-12T14:51:11.033Z,6.02
2023-01-12T14:53:42.741Z,5.99
2023-01-12T14:56:22.728Z,5.93
2023-01-12T14:58:50.522Z,5.94
2023-01-12T15:01:36.338Z,5.91
2023-01-12T15:04:07.280Z,5.88
2023-01-12T15:06:42.554Z,5.87
2023-01-12T15:09:34.242Z,5.90
2023-01-12T15:12:53.943Z,5.86
2023-01-12T15:15:23.434Z,5.98
2023-01-12T15:18:10.709Z,5.98
2023-01-12T15:21:02.228Z,5.99
2023-01-12T15:23:55.595Z,5.98
2023-01-12T15:26:22.753Z,5.99
2023-01-12T15:28:49.561Z,6.00
2023-01-12T15:31:29.631Z,6.00
2023-01-12T15:33:56.663Z,6.01
2023-01-12T15:36:23.348Z,6.01
2023-01-12T15:38:50.244Z,6.03
2023-01-12T15:41:41.221Z,6.00
2023-01-12T15:44:19.790Z,6.01
2023-01-12T15:46:47.308Z,6.01
2023-01-12T15:49:14.579Z,5.99
2023-01-12T15:51:44.393Z,5.99
2023-01-12T15:54:13.079Z,5.98
2023-01-12T15:56:40.379Z,5.95
2023-01-12T15:59:07.631Z,5.94
2023-01-12T16:01:38.812Z,5.91
2023-01-12T16:04:40.389Z,5.89
2023-01-12T16:06:53.656Z,5.87
2023-01-12T16:09:20.615Z,5.85
2023-01-12T16:11:47.267Z,5.87
2023-01-12T16:14:15.361Z,5.89
2023-01-12T16:16:42.789Z,5.88
2023-01-12T16:19:10.057Z,5.86
2023-01-12T16:21:36.814Z,5.93
2023-01-12T16:24:03.855Z,5.96
2023-01-12T16:26:30.847Z,5.97
2023-01-12T16:28:58.946Z,5.97
2023-01-12T16:31:26.121Z,5.99
2023-01-12T16:33:54.367Z,5.98
2023-01-12T16:36:21.112Z,6.01
2023-01-12T16:38:50.190Z,6.01
2023-01-12T16:41:24.914Z,6.01
2023-01-12T16:43:51.673Z,6.01
2023-01-12T16:46:18.490Z,6.02
2023-01-12T16:48:45.381Z,6.03
2023-01-12T16:51:17.032Z,6.03
2023-01-12T16:53:43.967Z,6.05
2023-01-12T16:56:13.347Z,6.07
2023-01-12T16:58:42.770Z,6.08
2023-01-12T17:01:24.986Z,6.09
2023-01-12T17:03:57.524Z,6.08
2023-01-12T17:06:26.618Z,6.10
2023-01-12T17:08:54.266Z,6.09
2023-01-12T17:11:23.818Z,6.08
2023-01-12T17:13:52.608Z,6.07
2023-01-12T17:16:21.229Z,6.06
2023-01-12T17:18:51.070Z,6.08
2023-01-12T17:21:19.131Z,6.09
2023-01-12T17:23:46.472Z,6.09
2023-01-12T17:26:19.583Z,6.09
2023-01-12T17:28:47.670Z,6.09
2023-01-12T17:31:20.419Z,6.12
2023-01-12T17:33:47.329Z,6.11
2023-01-12T17:36:14.927Z,6.11
2023-01-12T17:38:41.621Z,6.11
2023-01-12T17:41:35.779Z,6.11
2023-01-12T17:44:05.395Z,6.12
2023-01-12T17:46:33.913Z,6.11
2023-01-12T17:49:05.065Z,6.12
2023-01-12T17:51:33.307Z,6.09
2023-01-12T17:54:01.307Z,6.11
2023-01-12T17:56:30.721Z,6.09
2023-01-12T17:58:57.696Z,6.12
2023-01-12T18:01:27.337Z,6.12
2023-01-12T18:03:54.090Z,6.13
2023-01-12T18:06:27.590Z,6.13
2023-01-12T18:09:00.045Z,6.13
2023-01-12T18:11:28.038Z,6.12
2023-01-12T18:13:55.895Z,6.13
2023-01-12T18:16:23.378Z,6.12
2023-01-12T18:18:51.830Z,6.14
2023-01-12T18:21:24.808Z,6.11
2023-01-12T18:23:52.671Z,6.07
2023-01-12T18:26:27.417Z,6.04
2023-01-12T18:28:55.987Z,5.99
2023-01-12T18:31:25.855Z,5.96
2023-01-12T18:34:02.681Z,5.93
2023-01-12T18:36:29.409Z,5.93
2023-01-12T18:38:56.228Z,5.91
2023-01-12T18:41:41.814Z,5.86
2023-01-12T18:44:09.447Z,5.85
2023-01-12T18:46:59.911Z,5.84
2023-01-12T18:49:33.815Z,5.87
2023-01-12T18:52:19.957Z,5.90
2023-01-12T18:54:53.659Z,5.92
2023-01-12T18:57:24.200Z,5.91
2023-01-12T18:59:56.136Z,5.91
2023-01-12T19:02:23.316Z,5.89
2023-01-12T19:04:50.496Z,5.90
2023-01-12T19:07:50.591Z,5.91
2023-01-12T19:10:17.604Z,5.93
2023-01-12T19:12:47.935Z,5.95
2023-01-12T19:15:34.258Z,5.96
2023-01-12T19:18:01.156Z,5.98
2023-01-12T19:20:30.050Z,5.99
2023-01-12T19:23:15.791Z,6.01
2023-01-12T19:26:00.948Z,6.03
2023-01-12T19:28:35.653Z,6.01
2023-01-12T19:31:10.032Z,6.09
2023-01-12T19:33:37.733Z,6.07
2023-01-12T19:36:10.237Z,6.00
2023-01-12T19:38:37.717Z,6.00
2023-01-12T19:41:12.608Z,5.98
2023-01-12T19:43:45.105Z,5.99
2023-01-12T19:46:15.421Z,6.01
2023-01-12T19:48:42.274Z,6.01
2023-01-12T19:51:11.197Z,6.01
2023-01-12T19:53:39.476Z,6.03
2023-01-12T19:56:13.348Z,6.05
2023-01-12T19:58:40.998Z,6.07
2023-01-12T20:01:08.189Z,6.11
2023-01-12T20:03:35.153Z,6.12
2023-01-12T20:06:06.870Z,6.13
2023-01-12T20:08:33.516Z,6.13
2023-01-12T20:11:03.246Z,6.12
2023-01-12T20:13:32.753Z,6.11
2023-01-12T20:15:59.855Z,6.13
2023-01-12T20:18:27.110Z,6.12
2023-01-12T20:20:58.825Z,6.15
2023-01-12T20:23:25.432Z,6.14
2023-01-12T20:25:52.088Z,6.14
2023-01-12T20:28:19.012Z,6.15
2023-01-12T20:30:45.932Z,6.17
2023-01-12T20:33:12.810Z,6.14
2023-01-12T20:35:45.539Z,6.13
2023-01-12T20:38:15.791Z,6.12
2023-01-12T20:40:44.183Z,6.08
2023-01-12T20:43:10.974Z,6.07
2023-01-12T20:45:39.085Z,6.05
2023-01-12T20:48:05.803Z,6.05
2023-01-12T20:50:32.985Z,6.04
2023-01-12T20:52:59.619Z,6.01
2023-01-12T20:55:26.562Z,6.02
2023-01-12T20:57:53.188Z,6.00
2023-01-12T21:00:20.089Z,5.98
2023-01-12T21:02:46.664Z,6.00
2023-01-12T21:05:14.288Z,6.00
2023-01-12T21:07:41.250Z,6.02
2023-01-12T21:10:09.141Z,6.02
2023-01-12T21:12:36.023Z,5.98
2023-01-12T21:15:03.658Z,6.02
2023-01-12T21:17:31.695Z,6.02
2023-01-12T21:19:58.512Z,6.02
2023-01-12T21:22:25.367Z,6.04
2023-01-12T21:24:52.055Z,5.98
2023-01-12T21:27:18.925Z,5.98
2023-01-12T21:29:46.062Z,5.96
2023-01-12T21:32:13.808Z,5.92
2023-01-12T21:34:40.586Z,5.92
2023-01-12T21:37:07.788Z,5.90
2023-01-12T21:39:34.631Z,5.86
2023-01-12T21:42:19.782Z,5.88
2023-01-12T21:44:46.395Z,5.86
2023-01-12T21:47:13.069Z,5.86
2023-01-12T21:49:39.683Z,5.85
2023-01-12T21:52:06.267Z,5.85
2023-01-12T21:54:32.854Z,5.77
2023-01-12T21:56:59.770Z,5.84
2023-01-12T21:59:26.402Z,5.82
2023-01-12T22:01:53.137Z,5.82
2023-01-12T22:04:19.903Z,5.81
2023-01-12T22:06:46.514Z,5.80
2023-01-12T22:09:13.235Z,5.78
2023-01-12T22:11:39.896Z,5.77
2023-01-12T22:14:06.476Z,5.78
2023-01-12T22:16:33.189Z,5.78
2023-01-12T22:19:00.166Z,5.78
2023-01-12T22:21:26.858Z,5.78
2023-01-12T22:23:53.534Z,5.79
2023-01-12T22:26:20.357Z,5.80
2023-01-12T22:28:48.856Z,5.81
2023-01-12T22:31:21.390Z,5.82
2023-01-12T22:33:57.548Z,5.84
2023-01-12T22:36:24.502Z,5.87
2023-01-12T22:38:51.218Z,5.90
2023-01-12T22:41:19.525Z,5.91
2023-01-12T22:43:48.775Z,5.96
2023-01-12T22:46:17.615Z,5.95
2023-01-12T22:48:47.451Z,5.96
2023-01-12T22:51:14.426Z,5.94
2023-01-12T22:53:41.854Z,5.91
2023-01-12T22:56:11.323Z,5.88
2023-01-12T22:58:38.503Z,5.88
2023-01-12T23:01:07.620Z,5.90
2023-01-12T23:03:35.752Z,5.90
2023-01-12T23:06:03.376Z,5.90
2023-01-12T23:08:30.043Z,5.90
2023-01-12T23:11:09.403Z,5.90
2023-01-12T23:13:36.418Z,5.90
2023-01-12T23:16:06.725Z,5.90
2023-01-12T23:18:35.896Z,5.92
2023-01-12T23:21:15.645Z,5.93
2023-01-12T23:23:46.355Z,5.94
2023-01-12T23:26:17.923Z,5.94
2023-01-12T23:28:50.258Z,5.92
2023-01-12T23:31:20.162Z,5.90
2023-01-12T23:33:47.378Z,5.87
2023-01-12T23:36:16.834Z,5.85
2023-01-12T23:38:43.656Z,5.84
2023-01-12T23:41:19.084Z,5.83
2023-01-12T23:43:47.146Z,5.84
2023-01-12T23:46:17.022Z,5.87
2023-01-12T23:48:44.048Z,5.87
2023-01-12T23:51:10.769Z,5.85
2023-01-12T23:53:37.413Z,5.83
2023-01-12T23:56:09.744Z,5.82
2023-01-12T23:58:37.074Z,5.77
